Petrolia, Pennsylvania
Current Conditions -  °F | °C
As of 7:15 AM on Wednesday 28 Jan 2015 (Local Time) from KBTP Reporting Station
Overcast Overcast  
Wind Chill:   Ceiling: 600
Heat Index: 12°   Visibility: 10mi
Dew Point:   Wind: 8mph
Humidity: 85%   Direction: 230°SW
Pressure: 30.26"   Gusts: NA
Location:  41.02°N, 79.72°W
Report Text: KBTP 281215Z AUTO 23007KT 10SM OVC006 M11/M13 A3026 RMK AO1
Loading
Personal Weather Stations






























Interactive Weather Map New forecast layout! Learn more

10-Day Weather Forecast

Advertisements
Track Severe Weather on mobile